sensor_id;sensor_type;location;lat;lon;timestamp;P1;durP1;ratioP1;P2;durP2;ratioP2
53313;SDS011;39202;51.468;7.146;2023-05-16T00:01:06;1.55;;;1.50;;
53313;SDS011;39202;51.468;7.146;2023-05-16T00:06:08;1.50;;;1.50;;
53313;SDS011;39202;51.468;7.146;2023-05-16T00:11:10;1.58;;;1.58;;
53313;SDS011;39202;51.468;7.146;2023-05-16T00:16:13;1.58;;;1.58;;
53313;SDS011;39202;51.468;7.146;2023-05-16T00:21:14;1.70;;;1.60;;
53313;SDS011;39202;51.468;7.146;2023-05-16T00:26:16;1.80;;;1.70;;
53313;SDS011;39202;51.468;7.146;2023-05-16T00:31:19;1.50;;;1.45;;
53313;SDS011;39202;51.468;7.146;2023-05-16T00:36:21;1.52;;;1.50;;
53313;SDS011;39202;51.468;7.146;2023-05-16T00:41:23;1.55;;;1.50;;
53313;SDS011;39202;51.468;7.146;2023-05-16T00:46:27;1.60;;;1.60;;
53313;SDS011;39202;51.468;7.146;2023-05-16T00:51:28;1.60;;;1.55;;
53313;SDS011;39202;51.468;7.146;2023-05-16T00:56:31;1.63;;;1.58;;
53313;SDS011;39202;51.468;7.146;2023-05-16T01:01:34;1.48;;;1.48;;
53313;SDS011;39202;51.468;7.146;2023-05-16T01:06:37;1.27;;;1.27;;
53313;SDS011;39202;51.468;7.146;2023-05-16T01:11:40;1.58;;;1.55;;
53313;SDS011;39202;51.468;7.146;2023-05-16T01:16:55;1.50;;;1.42;;
53313;SDS011;39202;51.468;7.146;2023-05-16T01:22:05;1.30;;;1.30;;
53313;SDS011;39202;51.468;7.146;2023-05-16T01:27:16;1.45;;;1.45;;
53313;SDS011;39202;51.468;7.146;2023-05-16T01:32:20;1.50;;;1.50;;
53313;SDS011;39202;51.468;7.146;2023-05-16T01:37:23;1.40;;;1.40;;
53313;SDS011;39202;51.468;7.146;2023-05-16T01:42:31;1.58;;;1.58;;
53313;SDS011;39202;51.468;7.146;2023-05-16T01:47:37;1.48;;;1.40;;
53313;SDS011;39202;51.468;7.146;2023-05-16T01:52:43;1.42;;;1.33;;
53313;SDS011;39202;51.468;7.146;2023-05-16T01:57:51;1.40;;;1.40;;
53313;SDS011;39202;51.468;7.146;2023-05-16T02:02:54;1.30;;;1.30;;
53313;SDS011;39202;51.468;7.146;2023-05-16T02:07:55;1.40;;;1.40;;
53313;SDS011;39202;51.468;7.146;2023-05-16T02:12:59;1.30;;;1.30;;
53313;SDS011;39202;51.468;7.146;2023-05-16T02:18:01;1.48;;;1.38;;
53313;SDS011;39202;51.468;7.146;2023-05-16T02:23:03;1.20;;;1.20;;
53313;SDS011;39202;51.468;7.146;2023-05-16T02:28:06;1.20;;;1.20;;
53313;SDS011;39202;51.468;7.146;2023-05-16T02:33:08;1.35;;;1.30;;
53313;SDS011;39202;51.468;7.146;2023-05-16T02:38:10;1.25;;;1.17;;
53313;SDS011;39202;51.468;7.146;2023-05-16T02:43:17;1.20;;;1.20;;
53313;SDS011;39202;51.468;7.146;2023-05-16T02:48:19;1.20;;;1.20;;
53313;SDS011;39202;51.468;7.146;2023-05-16T02:53:21;1.10;;;1.10;;
53313;SDS011;39202;51.468;7.146;2023-05-16T02:58:24;1.00;;;1.00;;
53313;SDS011;39202;51.468;7.146;2023-05-16T03:03:26;1.17;;;1.17;;
53313;SDS011;39202;51.468;7.146;2023-05-16T03:08:27;1.40;;;1.30;;
53313;SDS011;39202;51.468;7.146;2023-05-16T03:13:31;1.10;;;1.10;;
53313;SDS011;39202;51.468;7.146;2023-05-16T03:18:33;1.20;;;1.20;;
53313;SDS011;39202;51.468;7.146;2023-05-16T03:23:34;1.15;;;1.15;;
53313;SDS011;39202;51.468;7.146;2023-05-16T03:28:37;1.08;;;1.08;;
53313;SDS011;39202;51.468;7.146;2023-05-16T03:33:39;1.10;;;1.10;;
53313;SDS011;39202;51.468;7.146;2023-05-16T03:38:41;1.15;;;1.10;;
53313;SDS011;39202;51.468;7.146;2023-05-16T03:43:44;1.10;;;1.10;;
53313;SDS011;39202;51.468;7.146;2023-05-16T03:48:45;1.20;;;1.10;;
53313;SDS011;39202;51.468;7.146;2023-05-16T03:53:47;1.10;;;1.10;;
53313;SDS011;39202;51.468;7.146;2023-05-16T03:58:50;1.10;;;1.10;;
53313;SDS011;39202;51.468;7.146;2023-05-16T04:03:52;0.88;;;0.88;;
53313;SDS011;39202;51.468;7.146;2023-05-16T04:08:54;1.02;;;1.02;;
53313;SDS011;39202;51.468;7.146;2023-05-16T04:13:57;1.00;;;1.00;;
53313;SDS011;39202;51.468;7.146;2023-05-16T04:19:00;1.10;;;1.10;;
53313;SDS011;39202;51.468;7.146;2023-05-16T04:24:03;0.90;;;0.90;;
53313;SDS011;39202;51.468;7.146;2023-05-16T04:29:06;1.10;;;1.10;;
53313;SDS011;39202;51.468;7.146;2023-05-16T04:34:08;1.00;;;1.00;;
53313;SDS011;39202;51.468;7.146;2023-05-16T04:39:11;0.90;;;0.90;;
53313;SDS011;39202;51.468;7.146;2023-05-16T04:44:14;0.95;;;0.95;;
53313;SDS011;39202;51.468;7.146;2023-05-16T04:49:16;0.90;;;0.90;;
53313;SDS011;39202;51.468;7.146;2023-05-16T04:54:17;0.88;;;0.88;;
53313;SDS011;39202;51.468;7.146;2023-05-16T04:59:21;0.90;;;0.90;;
53313;SDS011;39202;51.468;7.146;2023-05-16T05:04:23;0.95;;;0.95;;
53313;SDS011;39202;51.468;7.146;2023-05-16T05:09:25;0.93;;;0.93;;
53313;SDS011;39202;51.468;7.146;2023-05-16T05:14:28;1.08;;;1.00;;
53313;SDS011;39202;51.468;7.146;2023-05-16T05:19:30;1.27;;;1.20;;
53313;SDS011;39202;51.468;7.146;2023-05-16T05:24:31;1.65;;;1.30;;
53313;SDS011;39202;51.468;7.146;2023-05-16T05:29:34;2.88;;;1.50;;
53313;SDS011;39202;51.468;7.146;2023-05-16T05:34:36;3.22;;;1.63;;
53313;SDS011;39202;51.468;7.146;2023-05-16T05:39:38;2.80;;;1.70;;
53313;SDS011;39202;51.468;7.146;2023-05-16T05:44:41;3.00;;;1.77;;
53313;SDS011;39202;51.468;7.146;2023-05-16T05:49:43;3.55;;;1.98;;
53313;SDS011;39202;51.468;7.146;2023-05-16T05:54:45;2.85;;;2.00;;
53313;SDS011;39202;51.468;7.146;2023-05-16T05:59:49;4.47;;;2.05;;
53313;SDS011;39202;51.468;7.146;2023-05-16T06:04:51;3.83;;;2.35;;
53313;SDS011;39202;51.468;7.146;2023-05-16T06:09:53;5.88;;;2.78;;
53313;SDS011;39202;51.468;7.146;2023-05-16T06:14:56;9.18;;;3.28;;
53313;SDS011;39202;51.468;7.146;2023-05-16T06:19:58;5.35;;;2.60;;
53313;SDS011;39202;51.468;7.146;2023-05-16T06:25:00;6.07;;;2.33;;
53313;SDS011;39202;51.468;7.146;2023-05-16T06:30:03;4.90;;;2.40;;
53313;SDS011;39202;51.468;7.146;2023-05-16T06:35:06;4.43;;;2.00;;
53313;SDS011;39202;51.468;7.146;2023-05-16T06:40:09;4.55;;;1.90;;
53313;SDS011;39202;51.468;7.146;2023-05-16T06:45:13;2.90;;;1.50;;
53313;SDS011;39202;51.468;7.146;2023-05-16T06:50:15;3.35;;;1.75;;
53313;SDS011;39202;51.468;7.146;2023-05-16T06:55:17;2.90;;;1.30;;
53313;SDS011;39202;51.468;7.146;2023-05-16T07:00:20;2.97;;;1.60;;
53313;SDS011;39202;51.468;7.146;2023-05-16T07:05:22;3.13;;;1.30;;
53313;SDS011;39202;51.468;7.146;2023-05-16T07:10:24;3.03;;;1.60;;
53313;SDS011;39202;51.468;7.146;2023-05-16T07:15:27;2.60;;;1.60;;
53313;SDS011;39202;51.468;7.146;2023-05-16T07:20:29;3.03;;;1.58;;
53313;SDS011;39202;51.468;7.146;2023-05-16T07:25:31;3.70;;;1.77;;
53313;SDS011;39202;51.468;7.146;2023-05-16T07:30:34;3.35;;;1.40;;
53313;SDS011;39202;51.468;7.146;2023-05-16T07:35:36;4.13;;;1.45;;
53313;SDS011;39202;51.468;7.146;2023-05-16T07:40:38;1.20;;;1.10;;
53313;SDS011;39202;51.468;7.146;2023-05-16T07:45:41;1.65;;;1.00;;
53313;SDS011;39202;51.468;7.146;2023-05-16T07:50:43;1.63;;;1.00;;
53313;SDS011;39202;51.468;7.146;2023-05-16T07:55:45;1.63;;;1.02;;
53313;SDS011;39202;51.468;7.146;2023-05-16T08:00:48;2.05;;;1.10;;
53313;SDS011;39202;51.468;7.146;2023-05-16T08:05:50;1.30;;;1.00;;
53313;SDS011;39202;51.468;7.146;2023-05-16T08:10:52;1.50;;;1.10;;
53313;SDS011;39202;51.468;7.146;2023-05-16T08:15:55;1.20;;;1.02;;
53313;SDS011;39202;51.468;7.146;2023-05-16T08:20:57;1.77;;;1.10;;
53313;SDS011;39202;51.468;7.146;2023-05-16T08:25:59;1.25;;;0.90;;
53313;SDS011;39202;51.468;7.146;2023-05-16T08:31:03;1.98;;;1.10;;
53313;SDS011;39202;51.468;7.146;2023-05-16T08:36:05;2.67;;;1.10;;
53313;SDS011;39202;51.468;7.146;2023-05-16T08:41:07;2.00;;;0.93;;
53313;SDS011;39202;51.468;7.146;2023-05-16T08:46:10;1.50;;;0.95;;
53313;SDS011;39202;51.468;7.146;2023-05-16T08:51:12;2.13;;;1.20;;
53313;SDS011;39202;51.468;7.146;2023-05-16T08:56:17;1.33;;;1.00;;
53313;SDS011;39202;51.468;7.146;2023-05-16T09:01:22;1.15;;;0.90;;
53313;SDS011;39202;51.468;7.146;2023-05-16T09:06:24;2.28;;;0.90;;
53313;SDS011;39202;51.468;7.146;2023-05-16T09:11:27;1.02;;;0.93;;
53313;SDS011;39202;51.468;7.146;2023-05-16T09:16:30;0.98;;;0.90;;
53313;SDS011;39202;51.468;7.146;2023-05-16T09:21:33;1.33;;;0.98;;
53313;SDS011;39202;51.468;7.146;2023-05-16T09:26:37;1.40;;;0.85;;
53313;SDS011;39202;51.468;7.146;2023-05-16T09:31:40;1.85;;;1.00;;
53313;SDS011;39202;51.468;7.146;2023-05-16T09:36:42;0.75;;;0.75;;
53313;SDS011;39202;51.468;7.146;2023-05-16T09:41:44;0.88;;;0.80;;
53313;SDS011;39202;51.468;7.146;2023-05-16T09:46:47;0.90;;;0.85;;
53313;SDS011;39202;51.468;7.146;2023-05-16T09:51:49;0.82;;;0.80;;
53313;SDS011;39202;51.468;7.146;2023-05-16T09:56:51;0.60;;;0.60;;
53313;SDS011;39202;51.468;7.146;2023-05-16T10:01:54;0.70;;;0.70;;
53313;SDS011;39202;51.468;7.146;2023-05-16T10:06:59;0.88;;;0.82;;
53313;SDS011;39202;51.468;7.146;2023-05-16T10:12:04;1.00;;;0.80;;
53313;SDS011;39202;51.468;7.146;2023-05-16T10:17:10;0.85;;;0.70;;
53313;SDS011;39202;51.468;7.146;2023-05-16T10:22:14;0.80;;;0.80;;
53313;SDS011;39202;51.468;7.146;2023-05-16T10:27:17;1.05;;;0.93;;
53313;SDS011;39202;51.468;7.146;2023-05-16T10:32:22;0.70;;;0.70;;
53313;SDS011;39202;51.468;7.146;2023-05-16T10:37:24;1.17;;;0.93;;
53313;SDS011;39202;51.468;7.146;2023-05-16T10:42:27;1.05;;;0.70;;
53313;SDS011;39202;51.468;7.146;2023-05-16T10:47:30;1.33;;;1.02;;
53313;SDS011;39202;51.468;7.146;2023-05-16T10:52:32;1.23;;;0.57;;
53313;SDS011;39202;51.468;7.146;2023-05-16T10:57:34;2.00;;;0.90;;
53313;SDS011;39202;51.468;7.146;2023-05-16T11:02:40;0.70;;;0.70;;
53313;SDS011;39202;51.468;7.146;2023-05-16T11:07:42;1.08;;;0.90;;
53313;SDS011;39202;51.468;7.146;2023-05-16T11:12:44;0.80;;;0.80;;
53313;SDS011;39202;51.468;7.146;2023-05-16T11:17:50;0.70;;;0.70;;
53313;SDS011;39202;51.468;7.146;2023-05-16T11:23:16;0.77;;;0.77;;
53313;SDS011;39202;51.468;7.146;2023-05-16T11:28:22;1.80;;;0.90;;
53313;SDS011;39202;51.468;7.146;2023-05-16T11:33:26;0.70;;;0.70;;
53313;SDS011;39202;51.468;7.146;2023-05-16T11:38:34;0.90;;;0.90;;
53313;SDS011;39202;51.468;7.146;2023-05-16T11:43:36;0.60;;;0.60;;
53313;SDS011;39202;51.468;7.146;2023-05-16T11:48:40;0.70;;;0.70;;
53313;SDS011;39202;51.468;7.146;2023-05-16T11:53:45;0.60;;;0.60;;
53313;SDS011;39202;51.468;7.146;2023-05-16T11:58:48;0.88;;;0.82;;
53313;SDS011;39202;51.468;7.146;2023-05-16T12:03:55;1.77;;;0.75;;
53313;SDS011;39202;51.468;7.146;2023-05-16T12:08:57;0.85;;;0.75;;
53313;SDS011;39202;51.468;7.146;2023-05-16T12:14:01;1.33;;;0.70;;
53313;SDS011;39202;51.468;7.146;2023-05-16T12:19:05;0.65;;;0.55;;
53313;SDS011;39202;51.468;7.146;2023-05-16T12:24:08;0.60;;;0.60;;
53313;SDS011;39202;51.468;7.146;2023-05-16T12:29:11;1.42;;;0.75;;
53313;SDS011;39202;51.468;7.146;2023-05-16T12:34:15;1.00;;;0.75;;
53313;SDS011;39202;51.468;7.146;2023-05-16T12:39:17;0.93;;;0.60;;
53313;SDS011;39202;51.468;7.146;2023-05-16T12:44:20;0.63;;;0.63;;
53313;SDS011;39202;51.468;7.146;2023-05-16T12:49:24;0.80;;;0.80;;
53313;SDS011;39202;51.468;7.146;2023-05-16T12:54:26;0.70;;;0.70;;
53313;SDS011;39202;51.468;7.146;2023-05-16T12:59:28;0.88;;;0.70;;
53313;SDS011;39202;51.468;7.146;2023-05-16T13:04:31;0.60;;;0.60;;
53313;SDS011;39202;51.468;7.146;2023-05-16T13:09:33;0.77;;;0.60;;
53313;SDS011;39202;51.468;7.146;2023-05-16T13:14:35;0.60;;;0.60;;
53313;SDS011;39202;51.468;7.146;2023-05-16T13:19:38;0.60;;;0.60;;
53313;SDS011;39202;51.468;7.146;2023-05-16T13:24:40;1.35;;;0.68;;
53313;SDS011;39202;51.468;7.146;2023-05-16T13:29:42;1.55;;;0.63;;
53313;SDS011;39202;51.468;7.146;2023-05-16T13:34:45;0.98;;;0.60;;
53313;SDS011;39202;51.468;7.146;2023-05-16T13:39:47;1.17;;;0.55;;
53313;SDS011;39202;51.468;7.146;2023-05-16T13:44:49;1.88;;;0.60;;
53313;SDS011;39202;51.468;7.146;2023-05-16T13:49:52;1.08;;;0.63;;
53313;SDS011;39202;51.468;7.146;2023-05-16T13:54:54;0.75;;;0.63;;
53313;SDS011;39202;51.468;7.146;2023-05-16T13:59:56;1.85;;;0.70;;
53313;SDS011;39202;51.468;7.146;2023-05-16T14:04:59;0.77;;;0.70;;
53313;SDS011;39202;51.468;7.146;2023-05-16T14:10:01;1.67;;;0.80;;
53313;SDS011;39202;51.468;7.146;2023-05-16T14:15:03;1.17;;;0.80;;
53313;SDS011;39202;51.468;7.146;2023-05-16T14:20:07;0.73;;;0.73;;
53313;SDS011;39202;51.468;7.146;2023-05-16T14:25:10;0.65;;;0.52;;
53313;SDS011;39202;51.468;7.146;2023-05-16T14:30:12;1.40;;;0.88;;
53313;SDS011;39202;51.468;7.146;2023-05-16T14:35:15;0.70;;;0.70;;
53313;SDS011;39202;51.468;7.146;2023-05-16T14:40:17;0.68;;;0.65;;
53313;SDS011;39202;51.468;7.146;2023-05-16T14:45:20;0.60;;;0.60;;
53313;SDS011;39202;51.468;7.146;2023-05-16T14:50:23;0.90;;;0.70;;
53313;SDS011;39202;51.468;7.146;2023-05-16T14:55:25;0.50;;;0.50;;
53313;SDS011;39202;51.468;7.146;2023-05-16T15:00:27;0.80;;;0.80;;
53313;SDS011;39202;51.468;7.146;2023-05-16T15:05:30;0.95;;;0.80;;
53313;SDS011;39202;51.468;7.146;2023-05-16T15:10:32;0.60;;;0.60;;
53313;SDS011;39202;51.468;7.146;2023-05-16T15:15:33;0.65;;;0.65;;
53313;SDS011;39202;51.468;7.146;2023-05-16T15:20:38;0.70;;;0.70;;
53313;SDS011;39202;51.468;7.146;2023-05-16T15:25:40;0.70;;;0.70;;
53313;SDS011;39202;51.468;7.146;2023-05-16T15:30:42;0.77;;;0.77;;
53313;SDS011;39202;51.468;7.146;2023-05-16T15:35:45;0.70;;;0.70;;
53313;SDS011;39202;51.468;7.146;2023-05-16T15:40:47;0.60;;;0.60;;
53313;SDS011;39202;51.468;7.146;2023-05-16T15:45:49;0.63;;;0.63;;
53313;SDS011;39202;51.468;7.146;2023-05-16T15:50:52;0.88;;;0.70;;
53313;SDS011;39202;51.468;7.146;2023-05-16T15:55:54;0.68;;;0.68;;
53313;SDS011;39202;51.468;7.146;2023-05-16T16:00:56;0.70;;;0.70;;
53313;SDS011;39202;51.468;7.146;2023-05-16T16:05:59;0.60;;;0.60;;
53313;SDS011;39202;51.468;7.146;2023-05-16T16:11:01;0.70;;;0.70;;
53313;SDS011;39202;51.468;7.146;2023-05-16T16:16:04;0.70;;;0.70;;
53313;SDS011;39202;51.468;7.146;2023-05-16T16:21:07;0.68;;;0.68;;
53313;SDS011;39202;51.468;7.146;2023-05-16T16:26:09;0.60;;;0.60;;
53313;SDS011;39202;51.468;7.146;2023-05-16T16:31:11;0.88;;;0.70;;
53313;SDS011;39202;51.468;7.146;2023-05-16T16:36:14;0.70;;;0.70;;
53313;SDS011;39202;51.468;7.146;2023-05-16T16:41:16;0.52;;;0.52;;
53313;SDS011;39202;51.468;7.146;2023-05-16T16:46:18;0.80;;;0.70;;
53313;SDS011;39202;51.468;7.146;2023-05-16T16:51:22;0.57;;;0.57;;
53313;SDS011;39202;51.468;7.146;2023-05-16T16:56:24;0.70;;;0.70;;
53313;SDS011;39202;51.468;7.146;2023-05-16T17:01:27;1.00;;;0.70;;
53313;SDS011;39202;51.468;7.146;2023-05-16T17:06:32;0.70;;;0.70;;
53313;SDS011;39202;51.468;7.146;2023-05-16T17:11:33;0.50;;;0.50;;
53313;SDS011;39202;51.468;7.146;2023-05-16T17:16:39;0.80;;;0.70;;
53313;SDS011;39202;51.468;7.146;2023-05-16T17:21:42;0.60;;;0.60;;
53313;SDS011;39202;51.468;7.146;2023-05-16T17:26:44;2.72;;;1.05;;
53313;SDS011;39202;51.468;7.146;2023-05-16T17:31:46;1.27;;;0.60;;
53313;SDS011;39202;51.468;7.146;2023-05-16T17:36:49;0.73;;;0.73;;
53313;SDS011;39202;51.468;7.146;2023-05-16T17:41:51;0.70;;;0.70;;
53313;SDS011;39202;51.468;7.146;2023-05-16T17:46:54;0.57;;;0.57;;
53313;SDS011;39202;51.468;7.146;2023-05-16T17:51:57;0.70;;;0.70;;
53313;SDS011;39202;51.468;7.146;2023-05-16T17:56:59;0.93;;;0.80;;
53313;SDS011;39202;51.468;7.146;2023-05-16T18:02:01;0.70;;;0.70;;
53313;SDS011;39202;51.468;7.146;2023-05-16T18:07:05;0.80;;;0.80;;
53313;SDS011;39202;51.468;7.146;2023-05-16T18:12:06;0.75;;;0.75;;
53313;SDS011;39202;51.468;7.146;2023-05-16T18:17:09;0.80;;;0.80;;
53313;SDS011;39202;51.468;7.146;2023-05-16T18:22:13;0.85;;;0.68;;
53313;SDS011;39202;51.468;7.146;2023-05-16T18:27:15;1.10;;;0.70;;
53313;SDS011;39202;51.468;7.146;2023-05-16T18:32:17;0.70;;;0.70;;
53313;SDS011;39202;51.468;7.146;2023-05-16T18:37:20;0.70;;;0.70;;
53313;SDS011;39202;51.468;7.146;2023-05-16T18:42:22;0.75;;;0.75;;
53313;SDS011;39202;51.468;7.146;2023-05-16T18:47:24;0.82;;;0.80;;
53313;SDS011;39202;51.468;7.146;2023-05-16T18:52:27;0.95;;;0.70;;
53313;SDS011;39202;51.468;7.146;2023-05-16T18:57:29;0.82;;;0.75;;
53313;SDS011;39202;51.468;7.146;2023-05-16T19:02:31;0.70;;;0.70;;
53313;SDS011;39202;51.468;7.146;2023-05-16T19:07:34;1.67;;;0.90;;
53313;SDS011;39202;51.468;7.146;2023-05-16T19:12:35;0.80;;;0.80;;
53313;SDS011;39202;51.468;7.146;2023-05-16T19:17:37;0.88;;;0.80;;
53313;SDS011;39202;51.468;7.146;2023-05-16T19:22:41;0.77;;;0.77;;
53313;SDS011;39202;51.468;7.146;2023-05-16T19:27:43;0.90;;;0.90;;
53313;SDS011;39202;51.468;7.146;2023-05-16T19:32:45;0.82;;;0.82;;
53313;SDS011;39202;51.468;7.146;2023-05-16T19:37:48;0.70;;;0.70;;
53313;SDS011;39202;51.468;7.146;2023-05-16T19:42:50;0.63;;;0.63;;
53313;SDS011;39202;51.468;7.146;2023-05-16T19:47:51;0.90;;;0.90;;
53313;SDS011;39202;51.468;7.146;2023-05-16T19:52:55;0.70;;;0.70;;
53313;SDS011;39202;51.468;7.146;2023-05-16T19:57:56;1.17;;;0.80;;
53313;SDS011;39202;51.468;7.146;2023-05-16T20:02:58;0.70;;;0.70;;
53313;SDS011;39202;51.468;7.146;2023-05-16T20:08:01;0.70;;;0.70;;
53313;SDS011;39202;51.468;7.146;2023-05-16T20:13:03;0.70;;;0.70;;
53313;SDS011;39202;51.468;7.146;2023-05-16T20:18:05;0.75;;;0.75;;
53313;SDS011;39202;51.468;7.146;2023-05-16T20:23:08;0.70;;;0.70;;
53313;SDS011;39202;51.468;7.146;2023-05-16T20:28:09;0.80;;;0.80;;
53313;SDS011;39202;51.468;7.146;2023-05-16T20:33:11;0.70;;;0.70;;
53313;SDS011;39202;51.468;7.146;2023-05-16T20:38:14;1.15;;;0.60;;
53313;SDS011;39202;51.468;7.146;2023-05-16T20:43:16;0.68;;;0.68;;
53313;SDS011;39202;51.468;7.146;2023-05-16T20:48:18;1.42;;;0.77;;
53313;SDS011;39202;51.468;7.146;2023-05-16T20:53:21;0.80;;;0.80;;
53313;SDS011;39202;51.468;7.146;2023-05-16T20:58:23;0.80;;;0.80;;
53313;SDS011;39202;51.468;7.146;2023-05-16T21:03:25;0.60;;;0.60;;
53313;SDS011;39202;51.468;7.146;2023-05-16T21:08:28;0.70;;;0.70;;
53313;SDS011;39202;51.468;7.146;2023-05-16T21:13:29;0.80;;;0.80;;
53313;SDS011;39202;51.468;7.146;2023-05-16T21:18:31;0.65;;;0.65;;
53313;SDS011;39202;51.468;7.146;2023-05-16T21:23:34;0.70;;;0.70;;
53313;SDS011;39202;51.468;7.146;2023-05-16T21:28:36;0.85;;;0.85;;
53313;SDS011;39202;51.468;7.146;2023-05-16T21:33:38;1.40;;;0.90;;
53313;SDS011;39202;51.468;7.146;2023-05-16T21:38:41;0.70;;;0.70;;
53313;SDS011;39202;51.468;7.146;2023-05-16T21:43:42;0.60;;;0.60;;
53313;SDS011;39202;51.468;7.146;2023-05-16T21:48:44;0.80;;;0.80;;
53313;SDS011;39202;51.468;7.146;2023-05-16T21:53:47;0.90;;;0.90;;
53313;SDS011;39202;51.468;7.146;2023-05-16T21:58:49;0.95;;;0.80;;
53313;SDS011;39202;51.468;7.146;2023-05-16T22:03:50;0.70;;;0.70;;
53313;SDS011;39202;51.468;7.146;2023-05-16T22:08:53;0.73;;;0.73;;
53313;SDS011;39202;51.468;7.146;2023-05-16T22:13:55;0.88;;;0.88;;
53313;SDS011;39202;51.468;7.146;2023-05-16T22:18:57;0.50;;;0.50;;
53313;SDS011;39202;51.468;7.146;2023-05-16T22:24:00;0.60;;;0.60;;
53313;SDS011;39202;51.468;7.146;2023-05-16T22:29:02;0.60;;;0.60;;
53313;SDS011;39202;51.468;7.146;2023-05-16T22:34:04;0.60;;;0.60;;
53313;SDS011;39202;51.468;7.146;2023-05-16T22:39:07;0.70;;;0.60;;
53313;SDS011;39202;51.468;7.146;2023-05-16T22:44:09;0.70;;;0.70;;
53313;SDS011;39202;51.468;7.146;2023-05-16T22:49:11;0.70;;;0.70;;
53313;SDS011;39202;51.468;7.146;2023-05-16T22:54:15;0.80;;;0.80;;
53313;SDS011;39202;51.468;7.146;2023-05-16T22:59:16;0.70;;;0.70;;
53313;SDS011;39202;51.468;7.146;2023-05-16T23:04:18;0.70;;;0.70;;
53313;SDS011;39202;51.468;7.146;2023-05-16T23:09:21;0.70;;;0.70;;
53313;SDS011;39202;51.468;7.146;2023-05-16T23:14:23;0.60;;;0.60;;
53313;SDS011;39202;51.468;7.146;2023-05-16T23:19:25;0.90;;;0.90;;
53313;SDS011;39202;51.468;7.146;2023-05-16T23:24:28;0.60;;;0.60;;
53313;SDS011;39202;51.468;7.146;2023-05-16T23:29:29;0.70;;;0.70;;
53313;SDS011;39202;51.468;7.146;2023-05-16T23:34:31;0.80;;;0.80;;
53313;SDS011;39202;51.468;7.146;2023-05-16T23:39:34;0.60;;;0.60;;
53313;SDS011;39202;51.468;7.146;2023-05-16T23:44:36;0.70;;;0.70;;
53313;SDS011;39202;51.468;7.146;2023-05-16T23:49:38;0.50;;;0.50;;
53313;SDS011;39202;51.468;7.146;2023-05-16T23:54:42;0.70;;;0.70;;
53313;SDS011;39202;51.468;7.146;2023-05-16T23:59:44;0.80;;;0.80;;
